createdAt,value
2022-10-11T00:02:53.168Z,17.73
2022-10-11T00:05:41.115Z,25.20
2022-10-11T00:12:33.986Z,27.85
2022-10-11T00:16:22.406Z,30.00
2022-10-11T00:26:14.453Z,34.17
2022-10-11T00:29:14.917Z,28.75
2022-10-11T00:32:24.578Z,35.17
2022-10-11T00:35:20.295Z,23.08
2022-10-11T00:38:24.541Z,30.35
2022-10-11T00:41:22.300Z,26.77
2022-10-11T00:50:48.538Z,27.73
2022-10-11T00:53:35.699Z,25.10
2022-10-11T00:56:31.197Z,22.85
2022-10-11T00:59:25.227Z,27.10
2022-10-11T01:02:13.691Z,24.80
2022-10-11T01:05:27.566Z,20.92
2022-10-11T01:08:08.842Z,19.33
2022-10-11T01:10:58.908Z,24.75
2022-10-11T01:14:07.107Z,25.70
2022-10-11T01:17:09.161Z,32.70
2022-10-11T01:20:11.539Z,31.20
2022-10-11T01:23:15.663Z,27.50
2022-10-11T01:26:14.496Z,26.58
2022-10-11T01:29:13.819Z,36.28
2022-10-11T01:32:13.205Z,28.10
2022-10-11T01:35:08.467Z,29.80
2022-10-11T01:38:15.779Z,26.40
2022-10-11T01:41:09.379Z,30.40
2022-10-11T01:44:00.717Z,31.35
2022-10-11T01:46:47.826Z,28.98
2022-10-11T01:49:34.933Z,28.10
2022-10-11T01:52:22.445Z,25.83
2022-10-11T01:55:45.022Z,31.70
2022-10-11T01:58:45.040Z,29.75
2022-10-11T02:02:05.141Z,38.45
2022-10-11T02:05:23.267Z,23.50
2022-10-11T02:08:19.338Z,31.35
2022-10-11T02:11:28.965Z,33.33
2022-10-11T02:14:20.648Z,23.45
2022-10-11T02:17:13.096Z,27.92
2022-10-11T02:20:06.080Z,25.20
2022-10-11T02:22:58.914Z,32.67
2022-10-11T02:25:47.365Z,26.00
2022-10-11T02:28:38.033Z,22.90
2022-10-11T02:31:30.743Z,32.47
2022-10-11T02:34:40.202Z,26.98
2022-10-11T02:37:36.148Z,33.35
2022-10-11T02:40:36.566Z,36.55
2022-10-11T02:43:36.101Z,26.05
2022-10-11T02:46:25.057Z,31.45
2022-10-11T02:49:15.271Z,30.35
2022-10-11T02:52:04.875Z,40.13
2022-10-11T02:54:51.979Z,45.42
2022-10-11T02:57:39.309Z,38.72
2022-10-11T03:00:28.594Z,38.13
2022-10-11T03:03:15.796Z,45.22
2022-10-11T03:06:09.023Z,40.15
2022-10-11T03:08:56.194Z,40.03
2022-10-11T03:11:43.329Z,45.75
2022-10-11T03:14:30.389Z,33.65
2022-10-11T03:17:35.580Z,34.97
2022-10-11T03:20:26.959Z,40.67
2022-10-11T03:23:14.522Z,36.42
2022-10-11T03:26:01.900Z,40.58
2022-10-11T03:28:49.162Z,41.50
2022-10-11T03:31:38.579Z,43.83
2022-10-11T03:34:25.762Z,56.30
2022-10-11T03:37:12.890Z,73.70
2022-10-11T03:39:59.989Z,69.88
2022-10-11T03:42:46.992Z,92.95
2022-10-11T03:45:34.174Z,82.95
2022-10-11T03:48:26.637Z,91.93
2022-10-11T03:51:15.064Z,107.55
2022-10-11T03:54:02.127Z,109.40
2022-10-11T03:56:49.534Z,108.70
2022-10-11T03:59:36.553Z,113.90
2022-10-11T04:02:23.680Z,119.97
2022-10-11T04:05:12.906Z,118.55
2022-10-11T04:08:00.021Z,122.60
2022-10-11T04:10:49.116Z,117.13
2022-10-11T04:13:36.635Z,105.13
2022-10-11T04:16:23.867Z,120.72
2022-10-11T04:19:10.970Z,124.25
2022-10-11T04:21:58.170Z,122.22
2022-10-11T04:24:45.192Z,119.28
2022-10-11T04:27:32.303Z,132.05
2022-10-11T04:30:19.708Z,125.72
2022-10-11T04:33:06.906Z,119.47
2022-10-11T04:35:56.057Z,139.18
2022-10-11T04:38:43.244Z,133.63
2022-10-11T04:41:30.420Z,119.07
2022-10-11T04:44:17.852Z,129.38
2022-10-11T04:47:05.221Z,123.63
2022-10-11T04:49:52.223Z,140.35
2022-10-11T04:52:39.340Z,124.05
2022-10-11T04:55:26.454Z,148.20
2022-10-11T04:58:13.520Z,136.82
2022-10-11T05:01:01.999Z,125.20
2022-10-11T05:03:51.549Z,118.95
2022-10-11T05:06:39.007Z,108.47
2022-10-11T05:09:26.156Z,117.07
2022-10-11T05:12:13.954Z,110.78
2022-10-11T05:15:01.168Z,108.85
2022-10-11T05:17:48.289Z,110.60
2022-10-11T05:20:35.503Z,111.28
2022-10-11T05:23:22.590Z,109.22
2022-10-11T05:26:10.217Z,110.90
2022-10-11T05:28:57.465Z,122.75
2022-10-11T05:31:46.878Z,121.65
2022-10-11T05:34:34.014Z,100.72
2022-10-11T05:37:23.384Z,104.45
2022-10-11T05:40:11.154Z,111.68
2022-10-11T05:42:58.237Z,110.82
2022-10-11T05:45:46.472Z,118.10
2022-10-11T05:48:36.295Z,108.82
2022-10-11T05:51:25.750Z,114.65
2022-10-11T05:54:12.842Z,114.90
2022-10-11T05:56:59.892Z,115.47
2022-10-11T05:59:46.985Z,106.80
2022-10-11T06:02:37.090Z,101.82
2022-10-11T06:05:24.305Z,101.88
2022-10-11T06:08:16.908Z,113.10
2022-10-11T06:11:21.932Z,116.25
2022-10-11T06:14:09.216Z,103.88
2022-10-11T06:16:56.314Z,108.07
2022-10-11T06:19:43.370Z,107.40
2022-10-11T06:22:30.699Z,113.32
2022-10-11T06:25:17.927Z,94.63
2022-10-11T06:28:05.242Z,101.30
2022-10-11T06:30:52.374Z,92.78
2022-10-11T06:33:40.989Z,104.70
2022-10-11T06:36:29.232Z,99.85
2022-10-11T06:39:16.480Z,96.55
2022-10-11T06:42:03.717Z,91.25
2022-10-11T06:44:50.891Z,116.15
2022-10-11T06:47:38.452Z,90.68
2022-10-11T06:50:41.026Z,96.25
2022-10-11T06:53:32.948Z,99.45
2022-10-11T06:56:20.394Z,93.80
2022-10-11T06:59:08.632Z,107.65
2022-10-11T07:01:55.807Z,107.82
2022-10-11T07:04:43.130Z,90.45
2022-10-11T07:07:30.294Z,106.40
2022-10-11T07:10:17.458Z,87.95
2022-10-11T07:13:04.562Z,93.72
2022-10-11T07:15:51.841Z,91.72
2022-10-11T07:18:39.549Z,93.45
2022-10-11T07:21:30.385Z,85.55
2022-10-11T07:24:17.529Z,89.00
2022-10-11T07:27:05.127Z,91.45
2022-10-11T07:29:56.696Z,76.28
2022-10-11T07:32:43.883Z,87.57
2022-10-11T07:35:31.116Z,78.40
2022-10-11T07:38:18.274Z,73.57
2022-10-11T07:41:06.610Z,75.28
2022-10-11T07:43:55.001Z,78.07
2022-10-11T07:46:44.446Z,72.90
2022-10-11T07:49:31.650Z,65.30
2022-10-11T07:52:21.262Z,72.72
2022-10-11T07:55:08.992Z,58.17
2022-10-11T07:57:56.979Z,60.88
2022-10-11T08:00:44.264Z,57.05
2022-10-11T08:03:31.523Z,61.90
2022-10-11T08:06:23.143Z,54.63
2022-10-11T08:09:12.833Z,60.05
2022-10-11T08:12:02.362Z,54.92
2022-10-11T08:14:49.497Z,55.28
2022-10-11T08:17:39.655Z,51.78
2022-10-11T08:20:26.890Z,48.80
2022-10-11T08:23:16.746Z,57.25
2022-10-11T08:26:07.081Z,42.63
2022-10-11T08:28:54.653Z,44.75
2022-10-11T08:31:42.609Z,51.67
2022-10-11T08:34:29.807Z,51.28
2022-10-11T08:37:34.780Z,40.08
2022-10-11T08:40:24.026Z,35.03
2022-10-11T08:43:31.560Z,33.17
2022-10-11T08:46:30.712Z,32.95
2022-10-11T08:49:30.480Z,35.42
2022-10-11T08:52:48.886Z,34.13
2022-10-11T08:55:49.454Z,33.83
2022-10-11T08:59:08.553Z,35.50
2022-10-11T09:02:49.201Z,34.08
2022-10-11T09:06:07.708Z,29.15
2022-10-11T09:09:07.065Z,29.00
2022-10-11T09:12:12.166Z,33.08
2022-10-11T09:15:14.914Z,30.40
2022-10-11T09:21:49.933Z,45.67
2022-10-11T09:24:47.381Z,34.38
2022-10-11T09:28:02.260Z,32.53
2022-10-11T09:30:57.334Z,42.33
2022-10-11T09:33:48.064Z,52.42
2022-10-11T09:37:01.741Z,54.85
2022-10-11T09:39:59.378Z,41.40
2022-10-11T09:42:46.787Z,44.25
2022-10-11T09:45:33.941Z,42.75
2022-10-11T09:48:25.814Z,40.35
2022-10-11T09:51:21.863Z,37.83
2022-10-11T09:54:11.758Z,41.03
2022-10-11T09:56:59.223Z,38.17
2022-10-11T10:00:06.851Z,44.33
2022-10-11T10:03:03.029Z,44.53
2022-10-11T10:06:08.339Z,39.80
2022-10-11T10:09:03.477Z,35.88
2022-10-11T10:11:50.783Z,33.40
2022-10-11T10:14:38.138Z,35.83
2022-10-11T10:17:29.778Z,37.78
2022-10-11T10:20:36.200Z,45.45
2022-10-11T10:23:33.782Z,41.20
2022-10-11T10:26:26.478Z,37.97
2022-10-11T10:32:24.123Z,47.28
2022-10-11T10:35:38.955Z,39.53
2022-10-11T10:38:28.570Z,40.25
2022-10-11T10:41:19.550Z,41.92
2022-10-11T10:44:11.198Z,33.03
2022-10-11T10:47:09.660Z,36.33
2022-10-11T10:50:08.954Z,43.05
2022-10-11T10:53:17.528Z,40.25
2022-10-11T10:56:26.933Z,37.80
2022-10-11T10:59:33.106Z,40.70
2022-10-11T11:02:45.663Z,41.22
2022-10-11T11:06:09.438Z,38.92
2022-10-11T11:09:26.936Z,40.20
2022-10-11T11:12:50.396Z,43.67
2022-10-11T11:16:02.211Z,38.50
2022-10-11T11:18:49.433Z,41.97
2022-10-11T11:21:57.450Z,38.83
2022-10-11T11:25:21.668Z,37.47
2022-10-11T11:28:23.269Z,49.85
2022-10-11T11:31:16.535Z,37.38
2022-10-11T11:34:22.426Z,40.53
2022-10-11T11:37:40.752Z,45.42
2022-10-11T11:40:48.200Z,43.25
2022-10-11T11:43:38.002Z,34.35
2022-10-11T11:46:30.134Z,34.17
2022-10-11T11:49:25.017Z,39.15
2022-10-11T11:52:22.423Z,34.70
2022-10-11T11:55:09.649Z,32.05
2022-10-11T11:58:06.904Z,33.97
2022-10-11T12:01:16.745Z,39.70
2022-10-11T12:08:35.680Z,33.30
2022-10-11T12:11:31.697Z,33.78
2022-10-11T12:14:34.498Z,36.22
2022-10-11T12:17:23.962Z,27.60
2022-10-11T12:20:38.098Z,22.20
2022-10-11T12:23:31.309Z,30.10
2022-10-11T12:26:20.241Z,30.60
2022-10-11T12:29:41.140Z,26.55
2022-10-11T12:32:29.842Z,24.02
2022-10-11T12:35:35.713Z,24.10
2022-10-11T12:38:34.121Z,29.95
2022-10-11T12:41:54.350Z,26.67
2022-10-11T12:45:02.665Z,34.25
2022-10-11T12:48:19.590Z,35.15
2022-10-11T12:51:29.974Z,29.85
2022-10-11T12:54:39.655Z,26.25
2022-10-11T12:57:59.831Z,33.30
2022-10-11T13:00:57.007Z,25.85
2022-10-11T13:03:49.317Z,25.55
2022-10-11T13:06:55.148Z,29.15
2022-10-11T13:09:48.960Z,24.70
2022-10-11T13:12:41.997Z,24.02
2022-10-11T13:18:23.424Z,29.30
2022-10-11T13:21:40.851Z,29.17
2022-10-11T13:24:39.333Z,25.08
2022-10-11T13:27:28.026Z,21.60
2022-10-11T13:30:30.857Z,22.00
2022-10-11T13:33:40.018Z,22.13
2022-10-11T13:36:33.770Z,23.73
2022-10-11T13:39:36.009Z,20.08
2022-10-11T13:42:32.137Z,26.08
2022-10-11T13:45:28.073Z,20.02
2022-10-11T13:48:16.586Z,29.27
2022-10-11T13:51:26.652Z,26.25
2022-10-11T13:54:15.962Z,22.17
2022-10-11T13:57:03.367Z,19.48
2022-10-11T13:59:57.632Z,17.77
2022-10-11T14:03:13.717Z,25.20
2022-10-11T14:06:04.390Z,26.98
2022-10-11T14:08:57.222Z,23.08
2022-10-11T14:11:45.322Z,24.70
2022-10-11T14:14:35.975Z,21.25
2022-10-11T14:17:46.052Z,25.33
2022-10-11T14:20:41.193Z,21.17
2022-10-11T14:23:28.513Z,20.67
2022-10-11T14:26:18.929Z,20.27
2022-10-11T14:29:18.767Z,20.42
2022-10-11T14:32:13.758Z,18.48
2022-10-11T14:35:01.575Z,23.10
2022-10-11T14:37:49.809Z,17.15
2022-10-11T14:40:36.956Z,21.30
2022-10-11T14:43:25.292Z,19.77
2022-10-11T14:46:30.889Z,18.50
2022-10-11T14:49:25.175Z,20.52
2022-10-11T14:52:13.928Z,20.73
2022-10-11T14:55:02.108Z,14.82
2022-10-11T14:57:49.479Z,16.63
2022-10-11T15:00:38.486Z,18.10
2022-10-11T15:03:30.558Z,15.00
2022-10-11T15:06:28.591Z,15.70
2022-10-11T15:09:17.106Z,24.15
2022-10-11T15:12:04.489Z,26.27
2022-10-11T15:14:53.954Z,16.80
2022-10-11T15:17:43.586Z,28.90
2022-10-11T15:20:38.788Z,22.52
2022-10-11T15:23:29.679Z,25.00
2022-10-11T15:26:24.108Z,22.75
2022-10-11T15:29:12.029Z,25.35
2022-10-11T15:32:01.907Z,20.88
2022-10-11T15:34:49.670Z,23.90
2022-10-11T15:37:37.571Z,23.40
2022-10-11T15:40:33.845Z,26.27
2022-10-11T15:43:24.989Z,24.17
2022-10-11T15:46:18.820Z,26.33
2022-10-11T15:49:14.039Z,24.13
2022-10-11T15:52:02.012Z,21.00
2022-10-11T15:54:49.187Z,26.17
2022-10-11T15:57:37.613Z,28.20
2022-10-11T16:00:26.903Z,22.30
2022-10-11T16:03:15.479Z,26.92
2022-10-11T16:06:05.808Z,21.67
2022-10-11T16:08:56.046Z,24.65
2022-10-11T16:11:43.571Z,27.13
2022-10-11T16:14:31.439Z,23.52
2022-10-11T16:17:18.749Z,27.05
2022-10-11T16:20:08.047Z,20.40
2022-10-11T16:22:55.567Z,24.23
2022-10-11T16:25:43.564Z,24.60
2022-10-11T16:28:32.833Z,29.80
2022-10-11T16:31:21.405Z,30.55
2022-10-11T16:34:09.324Z,31.30
2022-10-11T16:36:56.986Z,30.25
2022-10-11T16:39:44.860Z,26.25
2022-10-11T16:42:35.908Z,32.58
2022-10-11T16:45:28.050Z,32.47
2022-10-11T16:48:17.883Z,33.65
2022-10-11T16:51:12.594Z,32.20
2022-10-11T16:54:00.580Z,28.05
2022-10-11T16:57:03.227Z,43.85
2022-10-11T17:00:04.527Z,38.75
2022-10-11T17:02:56.219Z,33.10
2022-10-11T17:05:58.990Z,33.17
2022-10-11T17:09:12.467Z,35.67
2022-10-11T17:15:29.934Z,33.40
2022-10-11T17:18:24.393Z,36.95
2022-10-11T17:21:18.631Z,34.72
2022-10-11T17:24:10.907Z,41.60
2022-10-11T17:26:58.490Z,34.33
2022-10-11T17:30:10.818Z,34.15
2022-10-11T17:32:58.473Z,34.10
2022-10-11T17:35:50.184Z,41.13
2022-10-11T17:42:44.522Z,41.95
2022-10-11T17:46:11.764Z,37.38
2022-10-11T17:53:47.880Z,31.50
2022-10-11T17:56:56.278Z,35.10
2022-10-11T18:00:14.092Z,38.90
2022-10-11T18:05:36.689Z,38.85
2022-10-11T18:07:21.617Z,45.47
2022-10-11T18:21:43.467Z,45.47
2022-10-11T18:40:07.406Z,45.17
2022-10-11T18:43:05.052Z,44.50
2022-10-11T18:46:04.428Z,38.97
2022-10-11T18:48:59.982Z,51.88
2022-10-11T18:51:48.451Z,37.20
2022-10-11T18:54:35.976Z,41.58
2022-10-11T19:15:11.848Z,40.53
2022-10-11T19:51:12.905Z,46.65
2022-10-11T19:54:02.507Z,45.30
2022-10-11T19:56:57.576Z,46.88
2022-10-11T19:59:46.057Z,41.17
2022-10-11T20:02:40.333Z,50.42
2022-10-11T20:05:31.201Z,52.38
2022-10-11T20:08:20.817Z,46.08
2022-10-11T20:11:17.771Z,52.30
2022-10-11T20:14:06.345Z,46.17
2022-10-11T20:16:53.795Z,51.92
2022-10-11T20:19:46.692Z,50.83
2022-10-11T20:22:47.756Z,45.53
2022-10-11T20:26:07.965Z,53.10
2022-10-11T20:28:57.651Z,59.25
2022-10-11T20:31:49.553Z,51.95
2022-10-11T20:34:40.016Z,45.75
2022-10-11T20:37:28.076Z,50.75
2022-10-11T20:40:15.620Z,52.17
2022-10-11T20:43:03.050Z,60.88
2022-10-11T20:46:09.718Z,58.55
2022-10-11T20:49:05.364Z,53.67
2022-10-11T20:51:52.914Z,57.22
2022-10-11T20:54:42.095Z,63.20
2022-10-11T20:57:33.987Z,68.10
2022-10-11T21:00:30.430Z,54.25
2022-10-11T21:03:23.626Z,62.15
2022-10-11T21:17:24.355Z,51.72
